.
WxDataArchive / Data Records for 2011-09-11
2011-09-10 September 2011 2011-09-12

Data Records for Sunday, 11 September 2011

Time	Temp	Chill	HIndex	Humid	Dewpt	 Wind 	HiWind	WindDir	Rain 	Barom 
-----	----	-----	------	-----	-----	------	------	-------	-----	----- 
00:00	64.2	64.2	64.2	91	61.5	0	0	---	0.00	30.005 
00:05	64.0	64.0	64.0	91	61.3	0	0	---	0.00	30.005 
00:10	63.9	63.9	63.9	91	61.2	0	0	---	0.00	30.005 
00:15	63.9	63.9	63.9	92	61.5	0	0	---	0.00	30.003 
00:20	63.7	63.7	63.7	92	61.3	0	0	---	0.00	30.003 
00:25	63.7	63.7	63.7	92	61.3	0	0	---	0.00	30.003 
00:30	63.7	63.7	63.7	92	61.3	0	0	---	0.00	30.002 
00:35	63.5	63.5	63.5	92	61.1	0	0	---	0.00	30.002 
00:40	63.5	63.5	63.5	92	61.1	0	0	---	0.00	30.002 
00:45	63.5	63.5	63.5	92	61.1	0	0	---	0.00	30.002 
00:50	63.4	63.4	63.4	92	61.0	0	0	---	0.00	30.002 
00:55	63.4	63.4	63.4	92	61.0	0	0	---	0.00	30.002 
01:00	63.4	63.4	63.4	93	61.3	0	0	---	0.00	30.003 
01:05	63.2	63.2	63.2	93	61.1	0	0	---	0.00	30.003 
01:10	63.2	63.2	63.2	93	61.1	0	0	---	0.00	30.003 
01:15	63.2	63.2	63.2	93	61.1	0	0	---	0.00	30.000 
01:20	63.2	63.2	63.2	93	61.1	0	0	---	0.00	30.000 
01:25	63.2	63.2	63.2	93	61.1	0	0	---	0.00	30.000 
01:30	63.2	63.2	63.2	93	61.1	0	0	---	0.00	30.001 
01:35	63.2	63.2	63.2	93	61.1	0	0	---	0.00	30.001 
01:40	63.2	63.2	63.2	93	61.1	0	0	---	0.00	30.001 
01:45	63.1	63.1	63.1	93	61.0	0	0	---	0.00	30.001 
01:50	63.1	63.1	63.1	93	61.0	0	0	---	0.00	30.001 
01:55	63.1	63.1	63.1	93	61.0	0	0	---	0.00	30.001 
02:00	63.1	63.1	63.1	93	61.0	0	0	---	0.00	30.002 
02:05	63.1	63.1	63.1	94	61.3	0	0	---	0.00	30.002 
02:10	63.2	63.2	63.2	94	61.4	0	0	---	0.00	30.002 
02:15	63.2	63.2	63.2	94	61.4	0	0	---	0.00	30.003 
02:20	63.2	63.2	63.2	94	61.4	0	0	---	0.00	30.003 
02:25	63.2	63.2	63.2	94	61.4	0	0	---	0.00	30.003 
02:30	63.2	63.2	63.2	94	61.4	0	0	---	0.00	30.002 
02:35	63.2	63.2	63.2	94	61.4	0	0	---	0.00	30.002 
02:40	63.2	63.2	63.2	94	61.4	0	0	---	0.00	30.002 
02:45	63.2	63.2	63.2	94	61.4	0	0	---	0.00	30.001 
02:50	63.2	63.2	63.2	94	61.4	0	0	---	0.00	30.001 
02:55	63.2	63.2	63.2	94	61.4	0	0	---	0.00	30.001 
03:00	63.1	63.1	63.1	94	61.3	0	0	---	0.00	30.001 
03:05	63.1	63.1	63.1	94	61.3	0	0	---	0.00	30.001 
03:10	63.1	63.1	63.1	94	61.3	0	0	---	0.00	30.001 
03:15	63.1	63.1	63.1	94	61.3	0	0	---	0.00	29.999 
03:20	63.1	63.1	63.1	94	61.3	0	0	---	0.00	29.999 
03:25	63.1	63.1	63.1	94	61.3	0	0	---	0.00	29.999 
03:30	63.1	63.1	63.1	94	61.3	0	0	---	0.00	29.996 
03:35	62.9	62.9	62.9	94	61.1	0	0	---	0.00	29.996 
03:40	62.9	62.9	62.9	94	61.1	0	0	---	0.00	29.996 
03:45	62.9	62.9	62.9	94	61.1	0	0	---	0.00	29.993 
03:50	62.9	62.9	62.9	94	61.1	0	0	---	0.00	29.993 
03:55	63.1	63.1	63.1	95	61.6	0	0	---	0.00	29.993 
04:00	63.1	63.1	63.1	94	61.3	0	0	---	0.00	29.996 
04:05	63.1	63.1	63.1	94	61.3	0	0	---	0.00	29.996 
04:10	62.9	62.9	62.9	95	61.4	0	0	---	0.00	29.996 
04:15	62.9	62.9	62.9	95	61.4	0	0	---	0.00	29.994 
04:20	62.9	62.9	62.9	95	61.4	0	0	---	0.00	29.994 
04:25	62.9	62.9	62.9	95	61.4	0	0	---	0.00	29.994 
04:30	62.9	62.9	62.9	95	61.4	0	0	---	0.00	29.996 
04:35	62.9	62.9	62.9	95	61.4	0	0	---	0.00	29.996 
04:40	62.9	62.9	62.9	95	61.4	0	0	---	0.00	29.996 
04:45	62.9	62.9	62.9	95	61.4	0	0	---	0.00	29.999 
04:50	62.9	62.9	62.9	95	61.4	0	0	---	0.00	29.999 
04:55	62.7	62.7	62.7	95	61.2	0	0	---	0.00	29.999 
05:00	62.7	62.7	62.7	95	61.2	0	0	---	0.00	30.004 
05:05	62.7	62.7	62.7	95	61.2	0	0	---	0.00	30.004 
05:10	62.6	62.6	62.6	95	61.1	0	0	---	0.00	30.004 
05:15	62.6	62.6	62.6	95	61.1	0	0	---	0.00	30.004 
05:20	62.4	62.4	62.4	95	60.9	0	0	---	0.00	30.004 
05:25	62.4	62.4	62.4	95	60.9	0	0	---	0.00	30.004 
05:30	62.3	62.3	62.3	95	60.8	0	0	---	0.00	30.005 
05:35	62.3	62.3	62.3	95	60.8	0	0	---	0.00	30.005 
05:40	62.1	62.1	62.1	95	60.6	0	0	---	0.00	30.005 
05:45	62.0	62.0	62.0	95	60.5	0	0	---	0.00	30.007 
05:50	61.8	61.8	61.8	95	60.3	0	0	---	0.00	30.007 
05:55	61.8	61.8	61.8	95	60.3	0	0	---	0.00	30.007 
06:00	61.8	61.8	61.8	95	60.3	0	0	---	0.00	30.009 
06:05	61.8	61.8	61.8	95	60.3	0	0	---	0.00	30.009 
06:10	61.8	61.8	61.8	95	60.3	0	0	---	0.00	30.009 
06:15	61.8	61.8	61.8	95	60.3	0	0	---	0.00	30.013 
06:20	61.8	61.8	61.8	95	60.3	0	0	---	0.00	30.013 
06:25	61.8	61.8	61.8	95	60.3	0	0	---	0.00	30.013 
06:30	61.8	61.8	61.8	95	60.3	0	0	---	0.00	30.011 
06:35	61.8	61.8	61.8	95	60.3	0	0	---	0.00	30.011 
06:40	61.6	61.6	61.6	95	60.2	0	0	---	0.00	30.011 
06:45	61.6	61.6	61.6	95	60.2	0	0	---	0.00	30.012 
06:50	61.3	61.3	61.3	95	59.9	0	0	---	0.00	30.012 
06:55	61.2	61.2	61.2	95	59.8	0	0	---	0.00	30.012 
07:00	61.0	61.0	61.0	95	59.6	0	0	---	0.00	30.014 
07:05	61.0	61.0	61.0	95	59.6	0	0	---	0.00	30.014 
07:10	60.7	60.7	60.7	95	59.3	0	0	---	0.00	30.014 
07:15	60.5	60.5	60.5	95	59.1	0	0	---	0.00	30.017 
07:20	60.4	60.4	60.4	95	59.0	0	0	---	0.00	30.017 
07:25	60.4	60.4	60.4	95	59.0	0	0	---	0.00	30.017 
07:30	60.2	60.2	60.2	95	58.8	0	0	---	0.00	30.025 
07:35	60.2	60.2	60.2	95	58.8	0	0	---	0.00	30.025 
07:40	60.1	60.1	60.1	95	58.7	0	0	---	0.00	30.025 
07:45	60.1	60.1	60.1	95	58.7	0	0	---	0.00	30.027 
07:50	60.1	60.1	60.1	95	58.7	0	0	---	0.00	30.027 
07:55	60.1	60.1	60.1	96	59.0	0	0	---	0.00	30.027 
08:00	60.1	60.1	60.1	96	59.0	0	0	---	0.00	30.029 
08:05	60.1	60.1	60.1	96	59.0	0	0	---	0.00	30.029 
08:10	60.2	60.2	60.2	96	59.1	0	0	---	0.00	30.029 
08:15	60.4	60.4	60.4	96	59.3	0	0	---	0.00	30.033 
08:20	60.5	60.5	60.5	96	59.4	0	0	---	0.00	30.033 
08:25	60.9	60.9	60.9	96	59.7	0	0	---	0.00	30.033 
08:30	61.3	61.3	61.3	96	60.1	0	0	---	0.00	30.038 
08:35	61.6	61.6	61.6	96	60.4	0	0	---	0.00	30.038 
08:40	61.8	61.8	61.8	96	60.6	0	0	---	0.00	30.038 
08:45	62.0	62.0	62.0	96	60.8	0	0	---	0.00	30.037 
08:50	62.1	62.1	62.1	96	60.9	0	0	---	0.00	30.037 
08:55	62.3	62.3	62.3	96	61.1	0	0	---	0.00	30.037 
09:00	62.3	62.3	62.3	96	61.1	0	0	---	0.00	30.037 
09:05	62.4	62.4	62.4	96	61.2	0	0	---	0.00	30.037 
09:10	62.7	62.7	62.7	96	61.5	0	0	---	0.00	30.037 
09:15	62.7	62.7	62.7	96	61.5	0	0	---	0.00	30.039 
09:20	62.7	62.7	62.7	96	61.5	0	0	---	0.00	30.039 
09:25	62.9	62.9	62.9	96	61.7	0	0	---	0.00	30.039 
09:30	63.1	63.1	63.1	96	61.9	0	0	---	0.00	30.038 
09:35	63.2	63.2	63.2	96	62.0	0	0	---	0.00	30.038 
09:40	63.5	63.5	63.5	96	62.3	0	0	---	0.00	30.038 
09:45	63.9	63.9	63.9	96	62.7	0	0	---	0.00	30.036 
09:50	64.2	64.2	64.2	96	63.0	0	0	---	0.00	30.036 
09:55	64.3	64.3	64.3	96	63.1	0	0	---	0.00	30.036 
10:00	64.5	64.5	64.5	96	63.3	0	0	---	0.00	30.035 
10:05	64.7	64.7	64.7	96	63.5	0	0	---	0.00	30.035 
10:10	65.2	65.2	65.2	96	64.0	0	0	---	0.00	30.035 
10:15	65.8	65.8	65.8	96	64.6	1	2	338	0.00	30.033 
10:20	66.1	66.1	66.1	96	64.9	0	2	338	0.00	30.033 
10:25	66.6	66.6	66.6	96	65.4	0	1	338	0.00	30.033 
10:30	67.1	67.1	67.1	95	65.6	0	0	---	0.00	30.035 
10:35	67.4	67.4	67.4	94	65.6	0	0	---	0.00	30.035 
10:40	67.8	67.8	67.8	92	65.4	0	1	338	0.00	30.035 
10:45	68.4	68.4	68.4	92	66.0	0	1	338	0.00	30.036 
10:50	69.1	69.1	69.1	87	65.1	0	2	338	0.00	30.036 
10:55	69.4	69.4	69.4	85	64.7	0	2	338	0.00	30.036 
11:00	70.1	70.1	70.1	81	64.0	1	3	22	0.00	30.036 
11:05	70.8	70.8	70.8	80	64.3	1	4	112	0.00	30.036 
11:10	71.3	71.3	71.3	80	64.8	0	4	112	0.00	30.036 
11:15	72.1	72.1	72.1	78	64.8	0	2	112	0.00	30.034 
11:20	72.3	72.3	72.3	77	64.7	0	2	112	0.00	30.034 
11:25	71.8	71.8	71.8	75	63.4	1	2	112	0.00	30.034 
11:30	72.1	72.1	72.1	77	64.5	0	1	112	0.00	30.033 
11:35	72.7	72.7	72.7	74	63.9	0	2	112	0.00	30.033 
11:40	73.3	73.3	73.3	74	64.5	0	2	112	0.00	30.033 
11:45	74.2	74.2	74.2	72	64.6	1	4	112	0.00	30.030 
11:50	74.4	74.4	74.4	71	64.4	1	3	112	0.00	30.030 
11:55	74.7	74.7	74.7	70	64.2	0	3	135	0.00	30.030 
12:00	74.6	74.6	74.6	68	63.3	0	2	135	0.00	30.027 
12:05	74.4	74.4	74.4	69	63.5	0	2	135	0.00	30.027 
12:10	74.2	74.2	74.2	69	63.4	0	1	135	0.00	30.027 
12:15	73.7	73.7	73.7	69	62.9	0	1	135	0.00	30.025 
12:20	73.5	73.5	73.5	70	63.1	0	1	135	0.00	30.025 
12:25	73.5	73.5	73.5	69	62.7	0	1	135	0.00	30.025 
12:30	73.9	73.9	73.9	70	63.5	0	0	---	0.00	30.021 
12:35	74.0	74.0	74.0	69	63.2	0	1	135	0.00	30.021 
12:40	74.6	74.6	74.6	70	64.2	0	1	135	0.00	30.021 
12:45	75.3	75.3	77.1	68	64.0	1	3	135	0.00	30.016 
12:50	75.4	75.4	77.3	66	63.2	2	4	90	0.00	30.016 
12:55	75.3	75.3	77.2	66	63.1	1	3	90	0.00	30.016 
13:00	75.4	75.4	77.2	68	64.1	1	2	90	0.00	30.009 
13:05	76.1	76.1	78.0	63	62.6	1	3	90	0.00	30.009 
13:10	77.0	77.0	78.8	64	63.9	0	1	90	0.00	30.009 
13:15	77.7	77.7	79.4	60	62.7	1	3	90	0.00	30.001 
13:20	78.5	78.5	80.2	61	63.9	0	2	90	0.00	30.001 
13:25	78.8	78.8	80.5	60	63.7	0	2	90	0.00	30.001 
13:30	79.2	79.2	80.7	58	63.1	1	3	90	0.00	29.998 
13:35	79.2	79.2	80.6	56	62.1	1	4	90	0.00	29.998 
13:40	79.0	79.0	80.5	58	62.9	1	3	112	0.00	29.998 
13:45	79.2	79.2	80.8	59	63.6	0	3	292	0.00	29.992 
13:50	78.3	78.3	79.6	53	59.7	1	4	292	0.00	29.992 
13:55	76.8	76.8	78.6	55	59.4	1	4	292	0.00	29.992 
14:00	75.4	75.4	77.7	56	58.6	0	3	112	0.00	30.001 
14:05	74.4	74.4	74.4	60	59.6	0	2	112	0.00	30.001 
14:10	73.3	73.3	73.3	62	59.5	0	1	112	0.00	30.001 
14:15	72.5	72.5	72.5	66	60.5	0	1	112	0.00	30.005 
14:20	71.3	71.3	71.3	70	61.0	0	1	112	0.00	30.005 
14:25	70.4	70.4	70.4	74	61.7	0	0	---	0.00	30.005 
14:30	69.6	69.6	69.6	79	62.8	0	0	---	0.03	30.001 
14:35	68.9	68.9	68.9	83	63.5	0	0	---	0.00	30.001 
14:40	68.6	68.6	68.6	84	63.6	0	1	112	0.00	30.001 
14:45	68.4	68.4	68.4	85	63.7	0	1	112	0.00	29.992 
14:50	68.3	68.3	68.3	85	63.6	0	1	112	0.00	29.992 
14:55	68.1	68.1	68.1	85	63.4	0	0	---	0.00	29.992 
15:00	68.1	68.1	68.1	86	63.7	0	0	---	0.00	29.980 
15:05	68.4	68.4	68.4	86	64.0	0	0	---	0.00	29.980 
15:10	68.6	68.6	68.6	85	63.9	0	1	112	0.00	29.980 
15:15	68.9	68.9	68.9	84	63.9	0	1	112	0.00	29.990 
15:20	69.6	69.6	69.6	85	64.9	0	1	112	0.00	29.990 
15:25	70.8	70.8	70.8	85	66.1	0	1	112	0.00	29.990 
15:30	71.8	71.8	71.8	81	65.6	0	2	112	0.00	29.976 
15:35	72.8	72.8	72.8	78	65.5	0	2	112	0.00	29.976 
15:40	73.5	73.5	73.5	76	65.5	0	2	112	0.00	29.976 
15:45	73.7	73.7	73.7	73	64.5	0	2	112	0.00	29.972 
15:50	73.7	73.7	73.7	71	63.7	0	2	112	0.00	29.972 
15:55	74.0	74.0	74.0	71	64.0	0	2	112	0.00	29.972 
16:00	74.4	74.4	74.4	71	64.4	0	1	112	0.00	29.971 
16:05	74.6	74.6	74.6	69	63.7	1	3	112	0.00	29.971 
16:10	74.6	74.6	74.6	68	63.3	2	4	292	0.00	29.971 
16:15	74.7	74.7	74.7	65	62.1	1	3	292	0.00	29.967 
16:20	74.9	74.9	74.9	63	61.4	2	3	292	0.00	29.967 
16:25	75.3	75.3	77.5	60	60.4	1	3	292	0.00	29.967 
16:30	75.8	75.8	77.9	59	60.4	1	3	292	0.00	29.961 
16:35	76.0	76.0	78.0	60	61.1	1	3	292	0.00	29.961 
16:40	76.1	76.1	78.1	60	61.2	1	3	292	0.00	29.961 
16:45	76.1	76.1	78.1	61	61.7	1	4	292	0.00	29.960 
16:50	76.1	76.1	78.0	63	62.6	1	3	292	0.00	29.960 
16:55	76.1	76.1	78.1	61	61.7	0	3	292	0.00	29.960 
17:00	76.3	76.3	78.2	58	60.4	0	3	292	0.00	29.962 
17:05	76.5	76.5	78.4	58	60.6	0	1	292	0.00	29.962 
17:10	76.5	76.5	78.4	57	60.1	0	3	292	0.00	29.962 
17:15	76.7	76.7	78.5	55	59.3	1	4	292	0.00	29.963 
17:20	76.7	76.7	78.5	56	59.8	1	4	292	0.00	29.963 
17:25	76.5	76.5	78.4	58	60.6	1	2	315	0.00	29.963 
17:30	76.0	76.0	78.0	59	60.6	1	2	315	0.00	29.962 
17:35	75.4	75.4	77.6	60	60.5	1	2	315	0.00	29.962 
17:40	75.3	75.3	77.5	61	60.9	1	2	315	0.00	29.962 
17:45	75.4	75.4	77.6	61	61.0	1	3	315	0.00	29.962 
17:50	75.3	75.3	77.5	61	60.9	1	3	315	0.00	29.962 
17:55	75.1	75.1	77.4	61	60.7	1	3	315	0.00	29.962 
18:00	74.7	74.7	74.7	61	60.3	0	1	315	0.00	29.965 
18:05	74.6	74.6	74.6	62	60.7	0	1	315	0.00	29.965 
18:10	74.6	74.6	74.6	62	60.7	0	1	315	0.00	29.965 
18:15	74.6	74.6	74.6	60	59.8	1	3	315	0.00	29.961 
18:20	74.7	74.7	74.7	59	59.4	0	2	315	0.00	29.961 
18:25	74.9	74.9	74.9	59	59.6	0	1	315	0.00	29.961 
18:30	75.1	75.1	77.4	60	60.2	1	2	315	0.00	29.960 
18:35	75.1	75.1	77.4	61	60.7	0	2	315	0.00	29.960 
18:40	75.1	75.1	77.4	61	60.7	0	1	315	0.00	29.960 
18:45	75.1	75.1	77.3	62	61.2	0	1	315	0.00	29.961 
18:50	75.1	75.1	77.3	62	61.2	0	0	---	0.00	29.961 
18:55	74.9	74.9	74.9	62	61.0	0	0	---	0.00	29.961 
19:00	74.7	74.7	74.7	62	60.8	0	1	315	0.00	29.960 
19:05	74.6	74.6	74.6	63	61.2	0	1	315	0.00	29.960 
19:10	74.4	74.4	74.4	63	61.0	0	0	---	0.00	29.960 
19:15	74.2	74.2	74.2	64	61.2	0	0	---	0.00	29.963 
19:20	74.0	74.0	74.0	64	61.0	0	0	---	0.00	29.963 
19:25	73.9	73.9	73.9	65	61.4	0	0	---	0.00	29.963 
19:30	73.7	73.7	73.7	66	61.6	0	0	---	0.00	29.964 
19:35	73.5	73.5	73.5	67	61.9	0	0	---	0.00	29.964 
19:40	73.2	73.2	73.2	68	62.0	0	0	---	0.00	29.964 
19:45	72.8	72.8	72.8	69	62.0	0	0	---	0.00	29.967 
19:50	72.3	72.3	72.3	71	62.4	0	0	---	0.00	29.967 
19:55	71.8	71.8	71.8	71	61.9	0	0	---	0.00	29.967 
20:00	71.5	71.5	71.5	71	61.6	0	0	---	0.00	29.967 
20:05	71.3	71.3	71.3	72	61.8	0	0	---	0.00	29.967 
20:10	70.9	70.9	70.9	72	61.4	0	0	---	0.00	29.967 
20:15	70.8	70.8	70.8	73	61.7	0	0	---	0.00	29.971 
20:20	70.6	70.6	70.6	73	61.5	0	0	---	0.00	29.971 
20:25	70.4	70.4	70.4	74	61.7	0	0	---	0.00	29.971 
20:30	70.3	70.3	70.3	75	62.0	0	0	---	0.00	29.972 
20:35	70.3	70.3	70.3	75	62.0	0	0	---	0.00	29.972 
20:40	70.1	70.1	70.1	75	61.8	0	0	---	0.00	29.972 
20:45	69.9	69.9	69.9	76	62.0	0	0	---	0.00	29.975 
20:50	69.6	69.6	69.6	77	62.1	0	0	---	0.00	29.975 
20:55	69.4	69.4	69.4	77	61.9	0	0	---	0.00	29.975 
21:00	69.1	69.1	69.1	77	61.6	0	0	---	0.00	29.983 
21:05	68.9	68.9	68.9	78	61.7	0	0	---	0.00	29.983 
21:10	68.6	68.6	68.6	78	61.5	0	0	---	0.00	29.983 
21:15	68.4	68.4	68.4	79	61.6	0	0	---	0.00	29.990 
21:20	68.1	68.1	68.1	80	61.7	0	0	---	0.00	29.990 
21:25	67.9	67.9	67.9	81	61.8	0	0	---	0.00	29.990 
21:30	67.6	67.6	67.6	81	61.6	0	0	---	0.00	29.992 
21:35	67.4	67.4	67.4	82	61.7	0	0	---	0.00	29.992 
21:40	67.1	67.1	67.1	82	61.4	0	0	---	0.00	29.992 
21:45	66.9	66.9	66.9	83	61.6	0	0	---	0.00	29.993 
21:50	66.8	66.8	66.8	83	61.5	0	0	---	0.00	29.993 
21:55	66.6	66.6	66.6	84	61.6	0	0	---	0.00	29.993 
22:00	66.4	66.4	66.4	84	61.4	0	0	---	0.00	29.995 
22:05	66.3	66.3	66.3	85	61.6	0	0	---	0.00	29.995 
22:10	66.0	66.0	66.0	85	61.4	0	0	---	0.00	29.995 
22:15	65.8	65.8	65.8	85	61.2	0	0	---	0.00	29.989 
22:20	65.6	65.6	65.6	86	61.3	0	0	---	0.00	29.989 
22:25	65.5	65.5	65.5	86	61.2	0	0	---	0.00	29.989 
22:30	65.3	65.3	65.3	87	61.3	0	0	---	0.00	29.991 
22:35	65.0	65.0	65.0	87	61.0	0	0	---	0.00	29.991 
22:40	64.8	64.8	64.8	87	60.8	0	0	---	0.00	29.991 
22:45	64.7	64.7	64.7	87	60.7	0	0	---	0.00	29.992 
22:50	64.5	64.5	64.5	88	60.9	0	0	---	0.00	29.992 
22:55	64.3	64.3	64.3	88	60.7	0	0	---	0.00	29.992 
23:00	64.2	64.2	64.2	88	60.6	0	0	---	0.00	29.993 
23:05	64.2	64.2	64.2	89	60.9	0	0	---	0.00	29.993 
23:10	64.0	64.0	64.0	89	60.7	0	0	---	0.00	29.993 
23:15	64.0	64.0	64.0	90	61.0	0	0	---	0.00	29.994 
23:20	64.0	64.0	64.0	90	61.0	0	0	---	0.00	29.994 
23:25	64.2	64.2	64.2	90	61.2	0	0	---	0.00	29.994 
23:30	64.2	64.2	64.2	91	61.5	0	0	---	0.00	29.993 
23:35	64.3	64.3	64.3	91	61.6	0	0	---	0.00	29.993 
23:40	64.3	64.3	64.3	91	61.6	0	0	---	0.00	29.993 
23:45	64.5	64.5	64.5	91	61.8	0	0	---	0.00	29.991 
23:50	64.5	64.5	64.5	91	61.8	0	0	---	0.00	29.991 
23:55	64.5	64.5	64.5	90	61.5	0	0	---	0.00	29.991 

CoCoRaHS
IN-AL-39
A2 Web Hosting
Creative Commons License
GoDaddy
search engine by freefind advanced

loaded 2018-11-15 16:32:08 • last modified 2010-11-18 10:43:29
Privacy PolicyDisclaimer
• wx.awcolley.com is powered by PmWiki v.2002016 •
• all content (unless otherwise noted) © 2018 A W Colley